OIAG  Aghajari  Airport

Aghajari,, Iran

Add Bookmark
ICAO OIAG
Type Airport
Status Operational
Latitude
30° 44' 39" N
30.744400
Longitude
49° 40' 37" E
49.677200
Local (GMT +4.5 ) UTC
Jul 31, 2016 11:45 am Jul 31, 2016 07:15
Sunrise-Sunset Local UTC
Begin Civil Twilight 06:01 am 01:31
Sunrise 06:27 am 01:57
Sunset 08:07 pm 15:37
End Civil Twilight 08:34 pm 16:04
VFR
VFR
MVFR
MVFR
IFR
IFR
LIFR
LIFR
Unknown
Unavailable

Current Weather

METAR Observed IFR
OIAG 310700Z 15010KT 4000 HZ NSC 40/25 Q1000 Sun, Jul 31, 2016 @ 07:00 UTC
(15 Minutes ago)
Instrument Flight Rules
Wind Visibility Conditions
150° at 10 knots (19 kph) 4,007 m
  • Haze
Temperatures Readings Precipitation
Current Temp
40°C
104°F
Dewpoint
25°C
77°F
Heat Index
50°C
122°
Humidity 43%
Altimeter 29.53" Hg
Sea Level Pressure 1,000 mb
Field Elevation
29 m
95 ft
None Recorded

Additional weather within a 92.6km radius of OIAG

Map ICAO Location
OIAM 54.4km W/SW (248°)
VFR
VFR
MVFR
MVFR
IFR
IFR
LIFR
LIFR
Unknown
Unavailable
-
-

CheckWX.com is intended as a tool to help pilots better visualize weather data. It is not intended as a substitute for an official weather briefing obtained from a Flight Service Station. CheckWX.com does not meet the FAA requirements for an official pre-flight weather briefing. Therefore, it's important that pilots still call and obtain an official FSS pre-flight weather briefing.

© 2007-2016 CheckWX.com
07:15:06 UTC